LGAVLGKR

Guest
Details From LGAV - Athens Intl Airport Elefterios Venizel
To LGKR - IOANNIS KAPODISTRIAS INTL
Flight Number -
Tags decoded
Created
Modified
Stats Distance 245 nm / 454 km
Max Altitude 0 ft / 0 m
Waypoints 5
Social Downloads 0
Likes 0
Share VATSIM

Download

Looking for another format? Having issues loading an existing format? Contact us
Advertisement - Login to hide

Notes

Requested: LGAV GERMI UL995 VARDI PITAS LGKR

Route

LGAV GERMI UL995 VARDI PITAS LGKR

ID Type Via Altitude Latitude Longitude Leg Dist Tot Dist Heading (true) Name
O LGAV APT - 0 ft / 0 m 37.93636˚ 23.94447˚ - 0 nm - Athens Intl Airport Elefterios Venizel
GERMI FIX - 0 ft / 0 m 38.16556˚ 23.12444˚ 41 nm 41 nm 290° / 289° -
VARDI FIX UL995 (AWY-HI) 0 ft / 0 m 38.67194˚ 21.95111˚ 63 nm 104 nm 299° / 298° -
PITAS FIX - 0 ft / 0 m 39.90000˚ 19.84444˚ 122 nm 226 nm 308° / 306° -
O LGKR APT - 0 ft / 0 m 39.60178˚ 19.91191˚ 18 nm 244 nm 170° / 170° IOANNIS KAPODISTRIAS INTL

Altitude Profile

Advertisement - Login to hide

Weather


0- 5 10 15 20 25 30 35+ Temperature / ° C

Clouds and Precipitation
Forecast for 2017-12-16 12:00 UTC. Updated 18 minutes ago

Ground ~20,000 ft ~40,000 ft Winds

LGAV

Details ICAO LGAV (ATH)
Name Athens Intl Airport Elefterios Venizel
Region Greece
Timezone Europe/Athens (UTC+2.0)
Stats Elevation 308 ft / 94 m (AMSL)
Location 37.936357° 23.944470°
Runways 2
Magnetic Variation 4.484° E

METAR

LGAV 160720Z 19014KT 9999 FEW018 17/13 Q1013 NOSIG

Decode

TAF

TAF TAF LGAV 160500Z 1606/1706 20015KT 9999 FEW025 BECMG 1606/1608 20018G28KT SCT020 SCT070 PROB30 TEMPO 1612/1621 5000 RA SCT020 BKN070 PROB30 TEMPO 1615/1618 4000 TSRA SCT016 FEW018CB OVC070

Decode

Departure Runways

ID Width Length Bearing (true) Bearing (mag) Surface Threshold Offset Overrun Length
03L 148 ft / 45 m 12,474 ft / 3,802 m 36.51° 32.03° Asphalt 984 ft / 300 m 393 ft / 120 m
03R 148 ft / 45 m 13,131 ft / 4,002 m 36.52° 32.04° Asphalt 984 ft / 300 m 393 ft / 120 m
21L 148 ft / 45 m 13,131 ft / 4,002 m 216.54° 212.06° Asphalt 984 ft / 300 m 393 ft / 120 m
21R 148 ft / 45 m 12,474 ft / 3,802 m 216.53° 212.05° Asphalt 984 ft / 300 m 393 ft / 120 m

LGKR

Details ICAO LGKR (CFU)
Name IOANNIS KAPODISTRIAS INTL
Region Greece
Timezone Europe/Athens (UTC+2.0)
Stats Elevation 6 ft / 2 m (AMSL)
Location 39.601779° 19.911908°
Runways 1
Magnetic Variation 4.098° E

METAR

LGKR 160720Z 17011KT 9999 SCT013 BKN020 17/14 Q1009 NOSIG

Decode

TAF

TAF LGKR 160500Z 1606/1706 16018KT 9999 SCT010 BKN025 PROB40 TEMPO 1606/1703 5000 RA BKN020 BKN080 PROB30 TEMPO 1609/1624 4000 TSRA FEW018CB BKN020 BKN080 BECMG 1610/1612 22010KT BECMG 1616/1618 16008KT BECMG 1622/1624 34008KT

Decode

Destination Runways

ID Width Length Bearing (true) Bearing (mag) Surface Threshold Offset Overrun Length
17 148 ft / 45 m 7,815 ft / 2,382 m 168.81° 164.71° Asphalt 1,348 ft / 411 m 0 ft / 0 m
35 148 ft / 45 m 7,815 ft / 2,382 m 348.81° 344.71° Asphalt 213 ft / 65 m 0 ft / 0 m

Popular Alternatives